sensor_id;sensor_type;location;lat;lon;timestamp;pressure;altitude;pressure_sealevel;temperature;humidity
42247;BME280;27913;42.722;23.268;2022-11-20T00:00:03;94210.59;;;15.49;71.37
42247;BME280;27913;42.722;23.268;2022-11-20T00:02:29;94287.44;;;15.96;71.24
42247;BME280;27913;42.722;23.268;2022-11-20T00:04:54;94233.97;;;15.69;71.44
42247;BME280;27913;42.722;23.268;2022-11-20T00:07:20;94286.09;;;15.93;71.13
42247;BME280;27913;42.722;23.268;2022-11-20T00:09:45;94299.56;;;16.03;71.16
42247;BME280;27913;42.722;23.268;2022-11-20T00:12:11;94253.34;;;16.16;70.91
42247;BME280;27913;42.722;23.268;2022-11-20T00:14:36;94196.97;;;15.75;70.78
42247;BME280;27913;42.722;23.268;2022-11-20T00:17:02;94194.03;;;15.88;70.54
42247;BME280;27913;42.722;23.268;2022-11-20T00:19:27;94235.44;;;16.24;68.97
42247;BME280;27913;42.722;23.268;2022-11-20T00:21:53;94252.47;;;16.45;68.56
42247;BME280;27913;42.722;23.268;2022-11-20T00:24:20;94269.38;;;16.39;69.07
42247;BME280;27913;42.722;23.268;2022-11-20T00:26:46;94271.22;;;16.38;68.86
42247;BME280;27913;42.722;23.268;2022-11-20T00:29:12;94247.81;;;16.18;69.21
42247;BME280;27913;42.722;23.268;2022-11-20T00:31:38;94259.63;;;16.27;69.73
42247;BME280;27913;42.722;23.268;2022-11-20T00:34:03;94270.56;;;16.31;69.12
42247;BME280;27913;42.722;23.268;2022-11-20T00:36:32;94270.81;;;16.29;68.85
42247;BME280;27913;42.722;23.268;2022-11-20T00:38:59;94256.47;;;16.30;69.37
42247;BME280;27913;42.722;23.268;2022-11-20T00:41:25;94161.41;;;15.70;69.06
42247;BME280;27913;42.722;23.268;2022-11-20T00:43:52;94157.78;;;15.77;68.61
42247;BME280;27913;42.722;23.268;2022-11-20T00:46:20;94225.31;;;16.21;69.05
42247;BME280;27913;42.722;23.268;2022-11-20T00:48:46;94234.31;;;16.20;69.52
42247;BME280;27913;42.722;23.268;2022-11-20T00:51:17;94259.00;;;16.37;70.15
42247;BME280;27913;42.722;23.268;2022-11-20T00:53:43;94230.19;;;16.12;70.16
42247;BME280;27913;42.722;23.268;2022-11-20T00:56:11;94245.63;;;16.15;70.62
42247;BME280;27913;42.722;23.268;2022-11-20T00:58:39;94257.38;;;16.36;70.43
42247;BME280;27913;42.722;23.268;2022-11-20T01:03:42;94234.72;;;16.28;70.84
42247;BME280;27913;42.722;23.268;2022-11-20T01:06:14;94060.34;;;15.15;71.15
42247;BME280;27913;42.722;23.268;2022-11-20T01:08:40;94095.19;;;15.41;71.38
42247;BME280;27913;42.722;23.268;2022-11-20T01:11:27;94056.41;;;15.18;71.16
42247;BME280;27913;42.722;23.268;2022-11-20T01:13:54;94158.66;;;15.82;71.68
42247;BME280;27913;42.722;23.268;2022-11-20T01:16:25;94072.53;;;15.16;71.86
42247;BME280;27913;42.722;23.268;2022-11-20T01:18:53;94002.31;;;14.67;72.15
42247;BME280;27913;42.722;23.268;2022-11-20T01:21:27;94147.34;;;15.70;72.36
42247;BME280;27913;42.722;23.268;2022-11-20T01:23:53;94056.16;;;15.02;72.24
42247;BME280;27913;42.722;23.268;2022-11-20T01:26:31;94237.22;;;16.18;71.35
42247;BME280;27913;42.722;23.268;2022-11-20T01:28:58;94244.84;;;16.14;71.89
42247;BME280;27913;42.722;23.268;2022-11-20T01:31:28;94192.72;;;15.91;71.44
42247;BME280;27913;42.722;23.268;2022-11-20T01:33:55;94230.19;;;16.12;71.45
42247;BME280;27913;42.722;23.268;2022-11-20T01:36:23;94031.50;;;14.72;71.68
42247;BME280;27913;42.722;23.268;2022-11-20T01:38:59;94112.28;;;15.33;71.09
42247;BME280;27913;42.722;23.268;2022-11-20T01:41:26;94217.44;;;16.09;69.85
42247;BME280;27913;42.722;23.268;2022-11-20T01:44:12;94238.47;;;16.15;69.81
42247;BME280;27913;42.722;23.268;2022-11-20T01:46:45;94208.09;;;16.06;69.10
42247;BME280;27913;42.722;23.268;2022-11-20T01:49:19;94233.34;;;16.26;68.88
42247;BME280;27913;42.722;23.268;2022-11-20T01:51:57;94191.22;;;15.95;68.64
42247;BME280;27913;42.722;23.268;2022-11-20T01:54:36;94249.50;;;16.24;69.07
42247;BME280;27913;42.722;23.268;2022-11-20T01:57:04;94194.22;;;15.87;69.44
42247;BME280;27913;42.722;23.268;2022-11-20T01:59:33;94183.09;;;15.85;69.54
42247;BME280;27913;42.722;23.268;2022-11-20T02:01:59;94242.09;;;16.26;69.22
42247;BME280;27913;42.722;23.268;2022-11-20T02:04:24;94233.91;;;16.28;69.19
42247;BME280;27913;42.722;23.268;2022-11-20T02:06:59;93992.72;;;14.78;69.28
42247;BME280;27913;42.722;23.268;2022-11-20T02:09:26;94053.78;;;15.18;69.37
42247;BME280;27913;42.722;23.268;2022-11-20T02:11:52;94240.41;;;16.20;69.84
42247;BME280;27913;42.722;23.268;2022-11-20T02:14:18;94243.78;;;16.15;69.97
42247;BME280;27913;42.722;23.268;2022-11-20T02:16:46;94234.22;;;16.14;70.25
42247;BME280;27913;42.722;23.268;2022-11-20T02:19:24;94179.47;;;15.74;70.18
42247;BME280;27913;42.722;23.268;2022-11-20T02:24:21;94059.25;;;14.99;70.00
42247;BME280;27913;42.722;23.268;2022-11-20T02:27:00;94238.41;;;16.10;69.65
42247;BME280;27913;42.722;23.268;2022-11-20T02:29:59;94188.16;;;15.86;69.95
42247;BME280;27913;42.722;23.268;2022-11-20T02:32:32;94160.75;;;15.63;70.34
42247;BME280;27913;42.722;23.268;2022-11-20T02:34:58;94155.94;;;15.60;70.06
42247;BME280;27913;42.722;23.268;2022-11-20T02:37:34;94187.75;;;15.77;70.16
42247;BME280;27913;42.722;23.268;2022-11-20T02:40:02;94241.13;;;16.15;70.10
42247;BME280;27913;42.722;23.268;2022-11-20T02:42:28;94225.78;;;16.00;70.21
42247;BME280;27913;42.722;23.268;2022-11-20T02:44:53;94252.72;;;16.09;70.63
42247;BME280;27913;42.722;23.268;2022-11-20T02:47:19;94241.47;;;16.19;70.51
42247;BME280;27913;42.722;23.268;2022-11-20T02:49:44;94254.56;;;16.26;70.24
42247;BME280;27913;42.722;23.268;2022-11-20T02:52:10;94139.38;;;15.53;69.92
42247;BME280;27913;42.722;23.268;2022-11-20T02:54:35;94010.25;;;14.67;70.07
42247;BME280;27913;42.722;23.268;2022-11-20T02:57:01;94259.28;;;16.24;70.55
42247;BME280;27913;42.722;23.268;2022-11-20T02:59:26;94216.25;;;15.87;70.63
42247;BME280;27913;42.722;23.268;2022-11-20T03:01:52;94280.75;;;16.22;71.09
42247;BME280;27913;42.722;23.268;2022-11-20T03:04:17;94269.59;;;16.20;71.17
42247;BME280;27913;42.722;23.268;2022-11-20T03:06:43;94276.44;;;16.16;71.71
42247;BME280;27913;42.722;23.268;2022-11-20T03:09:08;94291.78;;;16.14;71.94
42247;BME280;27913;42.722;23.268;2022-11-20T03:11:34;94276.34;;;16.11;72.13
42247;BME280;27913;42.722;23.268;2022-11-20T03:14:03;94229.50;;;15.70;72.15
42247;BME280;27913;42.722;23.268;2022-11-20T03:16:30;94134.97;;;15.12;72.18
42247;BME280;27913;42.722;23.268;2022-11-20T03:18:56;94284.63;;;16.14;72.11
42247;BME280;27913;42.722;23.268;2022-11-20T03:21:21;94093.16;;;14.85;71.95
42247;BME280;27913;42.722;23.268;2022-11-20T03:23:47;94279.88;;;16.16;71.98
42247;BME280;27913;42.722;23.268;2022-11-20T03:26:18;94289.19;;;16.19;72.07
42247;BME280;27913;42.722;23.268;2022-11-20T03:28:54;94293.44;;;16.20;71.86
42247;BME280;27913;42.722;23.268;2022-11-20T03:31:23;94301.66;;;16.18;72.22
42247;BME280;27913;42.722;23.268;2022-11-20T03:33:49;94308.00;;;16.17;72.39
42247;BME280;27913;42.722;23.268;2022-11-20T03:36:17;94320.94;;;16.14;72.73
42247;BME280;27913;42.722;23.268;2022-11-20T03:38:43;94311.16;;;16.14;72.57
42247;BME280;27913;42.722;23.268;2022-11-20T03:41:19;94322.31;;;16.16;72.67
42247;BME280;27913;42.722;23.268;2022-11-20T03:43:56;94324.66;;;16.13;72.55
42247;BME280;27913;42.722;23.268;2022-11-20T03:46:22;94321.66;;;16.09;72.61
42247;BME280;27913;42.722;23.268;2022-11-20T03:48:48;94267.75;;;15.74;72.82
42247;BME280;27913;42.722;23.268;2022-11-20T03:51:22;94191.56;;;15.23;73.19
42247;BME280;27913;42.722;23.268;2022-11-20T03:53:50;94148.81;;;15.02;72.49
42247;BME280;27913;42.722;23.268;2022-11-20T03:56:17;94318.53;;;16.12;72.27
42247;BME280;27913;42.722;23.268;2022-11-20T03:58:43;94336.28;;;16.12;72.56
42247;BME280;27913;42.722;23.268;2022-11-20T04:01:16;94331.47;;;16.09;72.12
42247;BME280;27913;42.722;23.268;2022-11-20T04:03:43;94323.84;;;16.12;71.61
42247;BME280;27913;42.722;23.268;2022-11-20T04:06:14;94334.13;;;16.09;71.68
42247;BME280;27913;42.722;23.268;2022-11-20T04:08:40;94324.00;;;16.05;72.02
42247;BME280;27913;42.722;23.268;2022-11-20T04:11:14;94251.63;;;15.64;71.95
42247;BME280;27913;42.722;23.268;2022-11-20T04:13:41;94278.00;;;15.70;72.25
42247;BME280;27913;42.722;23.268;2022-11-20T04:16:08;94215.06;;;15.49;72.52
42247;BME280;27913;42.722;23.268;2022-11-20T04:18:34;94302.31;;;15.97;72.65
42247;BME280;27913;42.722;23.268;2022-11-20T04:21:00;94073.22;;;14.53;72.32
42247;BME280;27913;42.722;23.268;2022-11-20T04:23:26;94295.41;;;15.96;72.53
42247;BME280;27913;42.722;23.268;2022-11-20T04:25:51;94108.91;;;14.80;71.92
42247;BME280;27913;42.722;23.268;2022-11-20T04:28:16;94316.53;;;16.02;72.09
42247;BME280;27913;42.722;23.268;2022-11-20T04:30:42;94200.28;;;15.36;71.65
42247;BME280;27913;42.722;23.268;2022-11-20T04:33:08;94279.78;;;15.82;71.29
42247;BME280;27913;42.722;23.268;2022-11-20T04:35:34;94072.31;;;14.47;71.79
42247;BME280;27913;42.722;23.268;2022-11-20T04:38:00;94313.63;;;15.92;71.63
42247;BME280;27913;42.722;23.268;2022-11-20T04:40:26;94318.72;;;15.93;71.41
42247;BME280;27913;42.722;23.268;2022-11-20T04:42:51;94316.59;;;15.96;71.75
42247;BME280;27913;42.722;23.268;2022-11-20T04:45:16;94306.25;;;15.94;71.73
42247;BME280;27913;42.722;23.268;2022-11-20T04:47:42;94093.44;;;14.59;71.43
42247;BME280;27913;42.722;23.268;2022-11-20T04:50:08;94299.59;;;15.91;71.87
42247;BME280;27913;42.722;23.268;2022-11-20T04:52:33;94291.41;;;15.93;71.83
42247;BME280;27913;42.722;23.268;2022-11-20T04:54:59;94288.75;;;15.93;71.83
42247;BME280;27913;42.722;23.268;2022-11-20T04:57:25;94244.41;;;15.59;71.82
42247;BME280;27913;42.722;23.268;2022-11-20T04:59:50;94207.25;;;15.42;71.81
42247;BME280;27913;42.722;23.268;2022-11-20T05:02:16;94274.81;;;15.86;71.94
42247;BME280;27913;42.722;23.268;2022-11-20T05:04:41;94281.19;;;15.85;72.35
42247;BME280;27913;42.722;23.268;2022-11-20T05:07:07;94287.25;;;15.85;72.48
42247;BME280;27913;42.722;23.268;2022-11-20T05:09:32;94076.19;;;14.57;72.52
42247;BME280;27913;42.722;23.268;2022-11-20T05:11:58;94273.44;;;15.83;72.17
42247;BME280;27913;42.722;23.268;2022-11-20T05:14:23;94268.72;;;15.85;72.63
42247;BME280;27913;42.722;23.268;2022-11-20T05:16:49;94271.34;;;15.85;72.16
42247;BME280;27913;42.722;23.268;2022-11-20T05:19:14;94265.88;;;15.75;71.87
42247;BME280;27913;42.722;23.268;2022-11-20T05:21:39;94285.66;;;15.84;71.97
42247;BME280;27913;42.722;23.268;2022-11-20T05:24:05;94294.97;;;15.87;72.18
42247;BME280;27913;42.722;23.268;2022-11-20T05:26:32;94300.06;;;15.88;72.02
42247;BME280;27913;42.722;23.268;2022-11-20T05:28:58;94169.72;;;15.16;71.63
42247;BME280;27913;42.722;23.268;2022-11-20T05:31:25;94185.84;;;15.14;72.41
42247;BME280;27913;42.722;23.268;2022-11-20T05:33:50;94084.84;;;14.52;72.39
42247;BME280;27913;42.722;23.268;2022-11-20T05:36:17;94256.81;;;15.70;72.28
42247;BME280;27913;42.722;23.268;2022-11-20T05:38:43;94280.94;;;15.86;72.92
42247;BME280;27913;42.722;23.268;2022-11-20T05:41:13;94190.75;;;15.23;72.77
42247;BME280;27913;42.722;23.268;2022-11-20T05:43:40;94255.56;;;15.61;73.25
42247;BME280;27913;42.722;23.268;2022-11-20T05:46:08;94265.69;;;15.64;72.96
42247;BME280;27913;42.722;23.268;2022-11-20T05:48:34;94118.03;;;14.72;72.24
42247;BME280;27913;42.722;23.268;2022-11-20T05:51:02;94157.78;;;15.01;72.61
42247;BME280;27913;42.722;23.268;2022-11-20T05:53:28;94255.16;;;15.52;73.40
42247;BME280;27913;42.722;23.268;2022-11-20T05:56:14;94249.03;;;15.52;73.47
42247;BME280;27913;42.722;23.268;2022-11-20T05:58:40;94217.88;;;15.42;73.46
42247;BME280;27913;42.722;23.268;2022-11-20T06:03:36;94261.78;;;15.67;73.68
42247;BME280;27913;42.722;23.268;2022-11-20T06:06:03;94311.44;;;15.89;72.76
42247;BME280;27913;42.722;23.268;2022-11-20T06:08:29;94270.19;;;15.64;72.44
42247;BME280;27913;42.722;23.268;2022-11-20T06:10:55;94309.63;;;15.89;72.02
42247;BME280;27913;42.722;23.268;2022-11-20T06:13:20;94315.16;;;15.88;71.80
42247;BME280;27913;42.722;23.268;2022-11-20T06:15:52;94164.13;;;15.00;71.88
42247;BME280;27913;42.722;23.268;2022-11-20T06:18:19;94108.13;;;14.67;72.30
42247;BME280;27913;42.722;23.268;2022-11-20T06:20:45;94332.28;;;15.97;72.64
42247;BME280;27913;42.722;23.268;2022-11-20T06:23:11;94312.38;;;15.94;72.33
42247;BME280;27913;42.722;23.268;2022-11-20T06:25:38;94117.31;;;14.77;72.34
42247;BME280;27913;42.722;23.268;2022-11-20T06:28:04;94174.00;;;15.05;72.12
42247;BME280;27913;42.722;23.268;2022-11-20T06:30:29;94058.53;;;14.45;71.87
42247;BME280;27913;42.722;23.268;2022-11-20T06:32:55;94197.41;;;15.37;71.87
42247;BME280;27913;42.722;23.268;2022-11-20T06:35:20;94320.28;;;16.06;71.83
42247;BME280;27913;42.722;23.268;2022-11-20T06:37:46;94322.22;;;16.11;71.39
42247;BME280;27913;42.722;23.268;2022-11-20T06:40:11;94292.25;;;16.11;70.98
42247;BME280;27913;42.722;23.268;2022-11-20T06:42:37;94322.78;;;16.13;71.62
42247;BME280;27913;42.722;23.268;2022-11-20T06:45:03;94220.59;;;15.47;71.72
42247;BME280;27913;42.722;23.268;2022-11-20T06:47:28;94328.91;;;16.14;71.54
42247;BME280;27913;42.722;23.268;2022-11-20T06:49:54;94336.28;;;16.12;71.20
42247;BME280;27913;42.722;23.268;2022-11-20T06:52:19;94261.44;;;15.63;71.20
42247;BME280;27913;42.722;23.268;2022-11-20T06:54:44;94324.78;;;16.06;71.04
42247;BME280;27913;42.722;23.268;2022-11-20T06:57:10;94304.84;;;16.03;70.23
42247;BME280;27913;42.722;23.268;2022-11-20T06:59:35;94312.59;;;16.22;69.97
42247;BME280;27913;42.722;23.268;2022-11-20T07:02:01;94319.28;;;16.25;69.58
42247;BME280;27913;42.722;23.268;2022-11-20T07:04:27;94320.69;;;16.15;69.97
42247;BME280;27913;42.722;23.268;2022-11-20T07:06:52;94351.69;;;16.27;69.43
42247;BME280;27913;42.722;23.268;2022-11-20T07:09:18;94358.75;;;16.21;70.00
42247;BME280;27913;42.722;23.268;2022-11-20T07:11:43;94359.44;;;16.16;70.68
42247;BME280;27913;42.722;23.268;2022-11-20T07:14:09;94148.75;;;14.85;70.40
42247;BME280;27913;42.722;23.268;2022-11-20T07:16:34;94319.41;;;15.89;70.62
42247;BME280;27913;42.722;23.268;2022-11-20T07:19:00;94093.00;;;14.51;70.29
42247;BME280;27913;42.722;23.268;2022-11-20T07:21:25;94349.25;;;16.25;70.28
42247;BME280;27913;42.722;23.268;2022-11-20T07:23:51;94266.53;;;15.82;70.27
42247;BME280;27913;42.722;23.268;2022-11-20T07:26:16;94349.66;;;16.34;70.30
42247;BME280;27913;42.722;23.268;2022-11-20T07:28:44;94363.50;;;16.36;70.10
42247;BME280;27913;42.722;23.268;2022-11-20T07:31:10;94356.34;;;16.37;69.98
42247;BME280;27913;42.722;23.268;2022-11-20T07:33:37;94367.44;;;16.34;70.43
42247;BME280;27913;42.722;23.268;2022-11-20T07:36:03;94359.72;;;16.32;70.75
42247;BME280;27913;42.722;23.268;2022-11-20T07:38:30;94177.00;;;15.08;71.05
42247;BME280;27913;42.722;23.268;2022-11-20T07:40:56;94318.94;;;15.92;71.06
42247;BME280;27913;42.722;23.268;2022-11-20T07:43:27;94367.72;;;16.20;71.25
42247;BME280;27913;42.722;23.268;2022-11-20T07:45:55;94251.44;;;15.53;70.98
42247;BME280;27913;42.722;23.268;2022-11-20T07:48:20;94358.75;;;16.21;71.55
42247;BME280;27913;42.722;23.268;2022-11-20T07:50:46;94363.00;;;16.22;71.36
42247;BME280;27913;42.722;23.268;2022-11-20T07:53:11;94365.16;;;16.25;72.05
42247;BME280;27913;42.722;23.268;2022-11-20T07:55:39;94322.59;;;16.03;72.31
42247;BME280;27913;42.722;23.268;2022-11-20T07:58:05;94129.97;;;14.74;72.52
42247;BME280;27913;42.722;23.268;2022-11-20T08:00:31;94358.88;;;16.14;72.72
42247;BME280;27913;42.722;23.268;2022-11-20T08:02:56;94354.94;;;16.17;72.37
42247;BME280;27913;42.722;23.268;2022-11-20T08:05:22;94370.63;;;16.18;72.37
42247;BME280;27913;42.722;23.268;2022-11-20T08:07:47;94372.09;;;16.26;72.75
42247;BME280;27913;42.722;23.268;2022-11-20T08:10:14;94378.66;;;16.24;72.82
42247;BME280;27913;42.722;23.268;2022-11-20T08:12:48;94354.25;;;16.22;73.44
42247;BME280;27913;42.722;23.268;2022-11-20T08:15:33;94305.59;;;15.87;73.63
42247;BME280;27913;42.722;23.268;2022-11-20T08:18:04;94368.06;;;16.24;73.66
42247;BME280;27913;42.722;23.268;2022-11-20T08:20:30;94127.25;;;14.69;73.03
42247;BME280;27913;42.722;23.268;2022-11-20T08:23:00;94355.94;;;16.28;72.94
42247;BME280;27913;42.722;23.268;2022-11-20T08:25:26;94351.19;;;16.30;72.45
42247;BME280;27913;42.722;23.268;2022-11-20T08:27:52;94338.13;;;16.11;72.37
42247;BME280;27913;42.722;23.268;2022-11-20T08:30:18;94347.47;;;16.14;71.43
42247;BME280;27913;42.722;23.268;2022-11-20T08:32:43;94380.81;;;16.39;70.42
42247;BME280;27913;42.722;23.268;2022-11-20T08:35:09;94350.22;;;16.19;71.39
42247;BME280;27913;42.722;23.268;2022-11-20T08:37:34;94287.41;;;15.78;73.25
42247;BME280;27913;42.722;23.268;2022-11-20T08:40:00;94378.63;;;16.36;74.79
42247;BME280;27913;42.722;23.268;2022-11-20T08:42:25;94257.31;;;15.55;80.40
42247;BME280;27913;42.722;23.268;2022-11-20T08:44:51;94314.38;;;16.34;90.36
42247;BME280;27913;42.722;23.268;2022-11-20T08:47:16;94320.81;;;16.38;81.62
42247;BME280;27913;42.722;23.268;2022-11-20T08:49:42;94402.31;;;16.89;80.34
42247;BME280;27913;42.722;23.268;2022-11-20T08:52:07;94402.69;;;16.63;81.56
42247;BME280;27913;42.722;23.268;2022-11-20T08:54:33;94396.06;;;16.32;83.10
42247;BME280;27913;42.722;23.268;2022-11-20T08:56:58;94388.22;;;16.08;86.01
42247;BME280;27913;42.722;23.268;2022-11-20T08:59:23;94373.59;;;15.93;87.29
42247;BME280;27913;42.722;23.268;2022-11-20T09:01:49;94384.00;;;15.82;89.67
42247;BME280;27913;42.722;23.268;2022-11-20T09:04:15;94392.22;;;15.69;90.84
42247;BME280;27913;42.722;23.268;2022-11-20T09:06:40;94186.63;;;14.37;91.29
42247;BME280;27913;42.722;23.268;2022-11-20T09:09:06;94405.81;;;15.61;90.73
42247;BME280;27913;42.722;23.268;2022-11-20T09:11:32;94416.06;;;15.57;91.15
42247;BME280;27913;42.722;23.268;2022-11-20T09:13:57;94412.72;;;15.50;92.06
42247;BME280;27913;42.722;23.268;2022-11-20T09:16:23;94421.97;;;15.47;90.93
42247;BME280;27913;42.722;23.268;2022-11-20T09:18:49;94424.84;;;15.45;91.35
42247;BME280;27913;42.722;23.268;2022-11-20T09:21:16;94426.34;;;15.41;93.89
42247;BME280;27913;42.722;23.268;2022-11-20T09:23:41;94417.25;;;15.37;94.19
42247;BME280;27913;42.722;23.268;2022-11-20T09:26:10;94207.44;;;13.98;95.67
42247;BME280;27913;42.722;23.268;2022-11-20T09:28:37;94329.97;;;14.70;96.38
42247;BME280;27913;42.722;23.268;2022-11-20T09:31:11;94346.41;;;14.72;96.22
42247;BME280;27913;42.722;23.268;2022-11-20T09:33:39;94180.50;;;13.65;95.93
42247;BME280;27913;42.722;23.268;2022-11-20T09:36:04;94218.56;;;13.88;96.43
42247;BME280;27913;42.722;23.268;2022-11-20T09:38:30;94327.22;;;14.65;96.72
42247;BME280;27913;42.722;23.268;2022-11-20T09:40:58;94367.63;;;14.96;96.23
42247;BME280;27913;42.722;23.268;2022-11-20T09:46:13;94207.09;;;13.94;97.65
42247;BME280;27913;42.722;23.268;2022-11-20T09:48:51;94312.81;;;14.73;97.09
42247;BME280;27913;42.722;23.268;2022-11-20T09:54:20;94314.22;;;14.76;96.44
42247;BME280;27913;42.722;23.268;2022-11-20T09:56:54;94366.47;;;15.04;98.18
42247;BME280;27913;42.722;23.268;2022-11-20T09:59:33;94361.28;;;15.09;97.22
42247;BME280;27913;42.722;23.268;2022-11-20T10:02:00;94356.69;;;15.17;95.91
42247;BME280;27913;42.722;23.268;2022-11-20T10:04:30;94356.22;;;15.32;95.15
42247;BME280;27913;42.722;23.268;2022-11-20T10:07:18;94228.72;;;14.75;95.70
42247;BME280;27913;42.722;23.268;2022-11-20T10:09:53;94346.16;;;15.58;94.50
42247;BME280;27913;42.722;23.268;2022-11-20T10:17:55;94297.31;;;15.54;90.88
42247;BME280;27913;42.722;23.268;2022-11-20T10:26:20;94299.47;;;15.69;87.30
42247;BME280;27913;42.722;23.268;2022-11-20T10:29:05;94270.59;;;15.43;88.93
42247;BME280;27913;42.722;23.268;2022-11-20T10:31:35;94290.75;;;15.56;88.75
42247;BME280;27913;42.722;23.268;2022-11-20T10:34:07;94364.56;;;15.94;89.33
42247;BME280;27913;42.722;23.268;2022-11-20T10:36:43;94282.50;;;15.41;87.00
42247;BME280;27913;42.722;23.268;2022-11-20T10:39:39;94366.34;;;15.88;85.37
42247;BME280;27913;42.722;23.268;2022-11-20T10:42:16;94319.34;;;15.42;88.27
42247;BME280;27913;42.722;23.268;2022-11-20T10:44:49;94362.81;;;15.70;90.09
42247;BME280;27913;42.722;23.268;2022-11-20T10:47:28;94254.38;;;14.99;93.00
42247;BME280;27913;42.722;23.268;2022-11-20T10:49:57;94341.78;;;15.52;93.79
42247;BME280;27913;42.722;23.268;2022-11-20T10:52:56;94323.31;;;15.16;96.29
42247;BME280;27913;42.722;23.268;2022-11-20T10:55:45;94348.63;;;15.24;97.41
42247;BME280;27913;42.722;23.268;2022-11-20T11:01:20;94377.88;;;14.81;91.86
42247;BME280;27913;42.722;23.268;2022-11-20T11:03:52;94358.78;;;14.36;93.09
42247;BME280;27913;42.722;23.268;2022-11-20T11:06:38;94391.09;;;14.38;93.25
42247;BME280;27913;42.722;23.268;2022-11-20T11:09:14;94390.63;;;13.98;98.88
42247;BME280;27913;42.722;23.268;2022-11-20T11:11:41;94391.63;;;13.67;100.00
42247;BME280;27913;42.722;23.268;2022-11-20T11:14:12;94073.53;;;11.51;98.66
42247;BME280;27913;42.722;23.268;2022-11-20T11:16:49;94302.97;;;12.51;99.26
42247;BME280;27913;42.722;23.268;2022-11-20T11:19:15;94089.28;;;10.99;98.78
42247;BME280;27913;42.722;23.268;2022-11-20T11:21:50;94339.22;;;12.63;100.00
42247;BME280;27913;42.722;23.268;2022-11-20T11:24:22;94286.72;;;11.96;100.00
42247;BME280;27913;42.722;23.268;2022-11-20T11:27:12;94334.13;;;12.36;100.00
42247;BME280;27913;42.722;23.268;2022-11-20T11:29:38;94014.34;;;10.37;100.00
42247;BME280;27913;42.722;23.268;2022-11-20T11:32:14;94325.69;;;12.27;100.00
42247;BME280;27913;42.722;23.268;2022-11-20T11:34:40;93967.38;;;10.09;100.00
42247;BME280;27913;42.722;23.268;2022-11-20T11:37:14;94339.06;;;12.25;100.00
42247;BME280;27913;42.722;23.268;2022-11-20T11:39:43;93977.53;;;9.98;100.00
42247;BME280;27913;42.722;23.268;2022-11-20T11:42:13;94346.78;;;12.27;100.00
42247;BME280;27913;42.722;23.268;2022-11-20T11:44:45;94355.88;;;12.31;100.00
42247;BME280;27913;42.722;23.268;2022-11-20T11:55:14;94344.41;;;12.44;96.97
42247;BME280;27913;42.722;23.268;2022-11-20T11:57:49;94255.31;;;11.95;97.04
42247;BME280;27913;42.722;23.268;2022-11-20T12:05:40;94320.78;;;12.30;95.66
42247;BME280;27913;42.722;23.268;2022-11-20T12:08:17;94330.94;;;12.27;94.92
42247;BME280;27913;42.722;23.268;2022-11-20T12:10:58;94155.72;;;11.27;93.98
42247;BME280;27913;42.722;23.268;2022-11-20T12:15:58;94397.72;;;12.78;93.31
42247;BME280;27913;42.722;23.268;2022-11-20T12:18:23;94087.44;;;11.00;93.43
42247;BME280;27913;42.722;23.268;2022-11-20T12:21:04;94306.28;;;12.47;94.77
42247;BME280;27913;42.722;23.268;2022-11-20T12:23:49;94299.47;;;12.32;92.38
42247;BME280;27913;42.722;23.268;2022-11-20T12:29:28;94286.53;;;12.56;89.50
42247;BME280;27913;42.722;23.268;2022-11-20T12:43:25;94358.47;;;13.08;89.48
42247;BME280;27913;42.722;23.268;2022-11-20T12:46:22;94056.66;;;11.33;90.04
42247;BME280;27913;42.722;23.268;2022-11-20T12:54:30;94200.03;;;11.88;96.18
42247;BME280;27913;42.722;23.268;2022-11-20T12:57:15;94299.22;;;12.40;97.67
42247;BME280;27913;42.722;23.268;2022-11-20T13:02:34;94200.25;;;11.61;99.50
42247;BME280;27913;42.722;23.268;2022-11-20T13:05:14;94272.28;;;12.06;96.65
42247;BME280;27913;42.722;23.268;2022-11-20T13:07:43;94134.22;;;11.30;96.99
42247;BME280;27913;42.722;23.268;2022-11-20T13:10:47;94321.06;;;12.48;97.72
42247;BME280;27913;42.722;23.268;2022-11-20T13:18:50;94284.28;;;12.02;100.00
42247;BME280;27913;42.722;23.268;2022-11-20T13:21:19;94229.63;;;11.58;100.00
42247;BME280;27913;42.722;23.268;2022-11-20T13:23:45;94056.53;;;10.56;100.00
42247;BME280;27913;42.722;23.268;2022-11-20T13:26:20;94376.59;;;12.53;100.00
42247;BME280;27913;42.722;23.268;2022-11-20T13:28:58;94362.13;;;12.62;100.00
42247;BME280;27913;42.722;23.268;2022-11-20T13:31:35;94363.09;;;12.68;98.10
42247;BME280;27913;42.722;23.268;2022-11-20T13:34:04;94145.00;;;11.54;96.21
42247;BME280;27913;42.722;23.268;2022-11-20T13:36:31;94350.59;;;12.82;95.05
42247;BME280;27913;42.722;23.268;2022-11-20T13:38:58;94350.38;;;12.84;95.07
42247;BME280;27913;42.722;23.268;2022-11-20T13:41:31;94181.06;;;11.79;97.27
42247;BME280;27913;42.722;23.268;2022-11-20T13:46:43;94149.72;;;11.45;97.96
42247;BME280;27913;42.722;23.268;2022-11-20T13:49:16;94347.91;;;12.63;99.13
42247;BME280;27913;42.722;23.268;2022-11-20T13:51:46;94343.66;;;12.62;100.00
42247;BME280;27913;42.722;23.268;2022-11-20T13:59:58;94228.50;;;12.05;100.00
42247;BME280;27913;42.722;23.268;2022-11-20T14:02:28;94343.06;;;12.60;100.00
42247;BME280;27913;42.722;23.268;2022-11-20T14:04:58;94341.25;;;12.61;99.71
42247;BME280;27913;42.722;23.268;2022-11-20T14:07:34;94346.09;;;12.64;98.31
42247;BME280;27913;42.722;23.268;2022-11-20T14:10:02;94354.00;;;12.64;96.83
42247;BME280;27913;42.722;23.268;2022-11-20T14:12:30;94008.25;;;10.50;95.50
42247;BME280;27913;42.722;23.268;2022-11-20T14:14:56;94347.34;;;12.61;93.37
42247;BME280;27913;42.722;23.268;2022-11-20T14:17:28;94250.09;;;11.88;93.08
42247;BME280;27913;42.722;23.268;2022-11-20T14:20:04;94337.59;;;12.36;93.75